Time;durP1;ratioP1;P1;durP2;ratioP2;P2;SDS_P1;SDS_P2;PMS_P1;PMS_P2;Temp;Humidity;BMP_temperature;BMP_pressure;BME280_temperature;BME280_humidity;BME280_pressure;Samples;Min_cycle;Max_cycle;Signal;HPM_P1;HPM_P2
2022/08/08 00:00:18;;;;;;;;;4.33;4.00;;;;;21.11;42.71;101483.81;4894944;28;47416;-90
2022/08/08 00:03:00;;;;;;;;;4.00;3.00;;;;;21.05;42.52;101482.09;4908239;28;45497;-89
2022/08/08 00:05:42;;;;;;;;;6.67;3.67;;;;;20.98;44.62;101484.00;4895814;28;45290;-90
2022/08/08 00:08:25;;;;;;;;;3.00;3.00;;;;;20.98;44.49;101491.22;4894640;29;45538;-89
2022/08/08 00:11:01;;;;;;;;;4.00;4.00;;;;;20.93;44.30;101483.22;4894398;28;46808;-89
2022/08/08 00:13:47;;;;;;;;;4.33;4.00;;;;;20.77;43.54;101457.34;4912180;28;45462;-89
2022/08/08 00:16:22;;;;;;;;;3.00;3.00;;;;;20.83;43.31;101464.47;4894610;29;45393;-89
2022/08/08 00:18:56;;;;;;;;;4.00;4.00;;;;;20.88;43.61;101474.25;4894438;28;45541;-88
2022/08/08 00:21:37;;;;;;;;;3.67;3.67;;;;;20.87;43.81;101477.91;4895251;29;47667;-88
2022/08/08 00:24:13;;;;;;;;;5.00;5.00;;;;;20.85;43.29;101479.75;4895156;28;45307;-89
2022/08/08 00:26:44;;;;;;;;;5.00;5.00;;;;;20.82;43.48;101482.47;4916329;28;45263;-89
2022/08/08 00:29:13;;;;;;;;;0.00;0.00;;;;;20.82;43.32;101478.91;4894988;29;44896;-89
2022/08/08 00:31:45;;;;;;;;;5.00;5.00;;;;;20.82;43.48;101479.78;4894183;29;47059;-89
2022/08/08 00:37:25;;;;;;;;;4.33;4.33;;;;;20.50;43.88;101431.63;4914013;28;45358;-88
2022/08/08 00:40:12;;;;;;;;;4.00;3.00;;;;;20.72;44.71;101478.16;4913389;29;44858;-89
2022/08/08 00:42:59;;;;;;;;;4.00;4.00;;;;;20.69;44.59;101467.41;4911071;29;45312;-89
2022/08/08 00:46:01;;;;;;;;;4.33;4.33;;;;;20.36;45.38;101415.66;4895955;29;45667;-88
2022/08/08 00:49:04;;;;;;;;;3.33;3.33;;;;;20.61;45.80;101467.50;4893387;28;45426;-88
2022/08/08 00:51:54;;;;;;;;;4.67;4.67;;;;;20.55;46.94;101471.16;4895126;29;45335;-88
2022/08/08 00:54:34;;;;;;;;;5.00;5.00;;;;;20.39;46.36;101443.50;4895055;28;48100;-88
2022/08/08 00:57:32;;;;;;;;;7.00;6.00;;;;;20.45;45.78;101464.13;4897058;29;44818;-89
2022/08/08 01:00:17;;;;;;;;;6.33;4.67;;;;;20.41;46.42;101456.09;4896334;28;44718;-89
2022/08/08 01:03:08;;;;;;;;;4.33;4.33;;;;;20.38;46.24;101463.34;4905170;29;45250;-88
2022/08/08 01:05:58;;;;;;;;;6.00;4.33;;;;;20.37;46.15;101463.34;4895645;29;47052;-88
2022/08/08 01:08:42;;;;;;;;;5.33;4.00;;;;;20.33;48.03;101465.19;4893738;28;45457;-89
2022/08/08 01:11:36;;;;;;;;;5.00;5.00;;;;;20.31;46.51;101466.13;4894149;29;44788;-88
2022/08/08 01:14:25;;;;;;;;;3.33;3.33;;;;;20.26;46.38;101452.72;4909872;29;45313;-88
2022/08/08 01:17:12;;;;;;;;;5.67;5.67;;;;;20.26;47.47;101454.50;4892723;29;47825;-90
2022/08/08 01:19:52;;;;;;;;;6.00;6.00;;;;;20.22;46.89;101447.34;4894539;28;45268;-90
2022/08/08 01:22:27;;;;;;;;;6.33;6.00;;;;;20.20;46.66;101458.22;4907717;28;45355;-89
2022/08/08 01:25:13;;;;;;;;;6.00;6.00;;;;;20.19;47.08;101451.00;4895182;28;45506;-89
2022/08/08 01:28:00;;;;;;;;;5.33;5.33;;;;;20.20;46.67;101452.81;4911196;28;45293;-89
2022/08/08 01:31:03;;;;;;;;;6.67;6.67;;;;;20.19;47.73;101449.19;4892999;28;45364;-89
2022/08/08 01:33:50;;;;;;;;;4.00;4.00;;;;;20.18;46.76;101449.22;4910233;29;45225;-89
2022/08/08 01:36:27;;;;;;;;;5.00;5.00;;;;;20.14;46.60;101448.38;4893731;29;45673;-89
2022/08/08 01:39:05;;;;;;;;;5.00;5.00;;;;;20.09;48.53;101447.53;4910785;28;45553;-89
2022/08/08 01:42:08;;;;;;;;;8.00;7.00;;;;;20.08;47.49;101453.88;4911837;29;45500;-90
2022/08/08 01:44:43;;;;;;;;;7.67;6.00;;;;;20.06;47.30;101458.41;4911155;29;45370;-88
2022/08/08 01:47:15;;;;;;;;;5.67;5.67;;;;;20.04;47.71;101456.63;4894701;29;45508;-89
2022/08/08 01:49:49;;;;;;;;;4.33;4.33;;;;;20.01;49.08;101457.56;4894626;29;47102;-89
2022/08/08 01:52:32;;;;;;;;;5.67;5.00;;;;;19.97;49.31;101456.69;4895125;29;45360;-89
2022/08/08 01:55:21;;;;;;;;;5.67;5.67;;;;;19.87;47.74;101448.75;4893282;29;45383;-89
2022/08/08 01:58:08;;;;;;;;;6.00;6.00;;;;;19.92;48.32;101446.91;4891733;28;44840;-89
2022/08/08 02:01:16;;;;;;;;;5.33;5.00;;;;;19.90;47.99;101454.13;4908548;28;45515;-88
2022/08/08 02:04:01;;;;;;;;;6.00;5.00;;;;;19.89;49.06;101457.72;4872882;28;45872;-89
2022/08/08 02:07:00;;;;;;;;;6.00;6.00;;;;;19.84;47.78;101454.19;4910808;29;45423;-88
2022/08/08 02:09:31;;;;;;;;;4.67;4.67;;;;;19.83;48.73;101455.09;4894493;29;45445;-90
2022/08/08 02:12:04;;;;;;;;;8.00;6.33;;;;;19.74;49.05;101443.50;4910629;28;45355;-89
2022/08/08 02:14:40;;;;;;;;;5.00;5.00;;;;;19.78;48.76;101458.75;4894051;28;45220;-88
2022/08/08 02:18:03;;;;;;;;;7.00;7.00;;;;;19.75;49.49;101458.81;4893912;29;45469;-89
2022/08/08 02:22:30;;;;;;;;;6.00;6.00;;;;;19.67;48.47;101446.25;4837059;29;45403;-88
2022/08/08 02:23:43;;;;;;;;;5.00;5.00;;;;;19.72;48.67;101450.72;4851691;29;45409;-89
2022/08/08 02:26:34;;;;;;;;;6.00;4.33;;;;;19.71;48.63;101451.66;4869081;29;45504;-89
2022/08/08 02:29:26;;;;;;;;;7.00;7.00;;;;;19.49;48.68;101406.91;4855806;29;45466;-89
2022/08/08 02:32:14;;;;;;;;;3.00;3.00;;;;;19.69;48.17;101445.34;4871955;29;45420;-88
2022/08/08 02:34:40;;;;;;;;;6.00;6.00;;;;;19.67;49.64;101451.66;4870950;29;46905;-89
2022/08/08 02:37:33;;;;;;;;;6.67;6.00;;;;;19.48;48.96;101424.91;4855602;29;45406;-89
2022/08/08 02:40:15;;;;;;;;;5.33;5.33;;;;;19.61;48.96;101452.63;4853095;29;45415;-89
2022/08/08 02:42:53;;;;;;;;;6.67;6.67;;;;;19.61;49.39;101446.34;4873115;29;45425;-88
2022/08/08 02:45:36;;;;;;;;;6.33;6.00;;;;;19.59;49.26;101443.66;4858210;29;47886;-88
2022/08/08 02:48:36;;;;;;;;;5.00;5.00;;;;;19.59;48.53;101443.66;4858911;29;45412;-88
2022/08/08 02:51:36;;;;;;;;;6.00;6.00;;;;;19.55;50.32;101452.69;4885622;29;45493;-88
2022/08/08 02:54:29;;;;;;;;;7.33;7.00;;;;;19.52;49.69;101450.94;4893566;28;45566;-88
2022/08/08 02:57:13;;;;;;;;;6.00;6.00;;;;;19.47;51.14;101450.13;4891401;29;47085;-89
2022/08/08 03:00:17;;;;;;;;;7.00;7.00;;;;;19.43;50.49;101452.84;4894269;29;45478;-88
2022/08/08 03:03:20;;;;;;;;;9.33;7.00;;;;;19.42;49.92;101451.06;4854414;29;45489;-88
2022/08/08 03:06:10;;;;;;;;;6.33;6.33;;;;;19.37;50.96;101452.00;4855632;29;45275;-89
2022/08/08 03:09:20;;;;;;;;;10.00;8.33;;;;;19.28;51.50;101441.31;4856132;29;47203;-90
2022/08/08 03:12:04;;;;;;;;;6.00;6.00;;;;;19.31;51.53;101449.38;4854587;29;45741;-88
2022/08/08 03:14:58;;;;;;;;;7.33;7.33;;;;;19.26;50.88;101445.81;4856100;29;45240;-89
2022/08/08 03:17:42;;;;;;;;;7.00;7.00;;;;;19.15;50.89;101436.97;4856658;29;45394;-89
2022/08/08 03:20:10;;;;;;;;;7.67;6.67;;;;;19.27;52.01;101457.50;4810503;29;47106;-89
2022/08/08 03:22:48;;;;;;;;;7.00;7.00;;;;;19.06;51.63;101431.66;4854066;29;45448;-89
2022/08/08 03:25:16;;;;;;;;;8.00;8.00;;;;;19.21;51.62;101455.78;4854569;29;45464;-89
2022/08/08 03:28:07;;;;;;;;;10.00;8.67;;;;;19.21;51.81;101466.56;4854078;29;45550;-89
2022/08/08 03:30:33;;;;;;;;;6.33;6.33;;;;;19.14;51.74;101459.44;4838777;29;46677;-90
2022/08/08 03:35:42;;;;;;;;;7.33;7.33;;;;;19.14;52.26;101456.75;4867729;29;44956;-90
2022/08/08 03:38:08;;;;;;;;;6.33;6.33;;;;;19.11;52.03;101462.19;4853397;29;45546;-89
2022/08/08 03:40:34;;;;;;;;;9.67;7.00;;;;;19.05;52.20;101459.56;4855495;29;45917;-88
2022/08/08 03:43:01;;;;;;;;;10.00;7.00;;;;;18.90;51.92;101425.53;4857328;29;45333;-89
2022/08/08 03:45:28;;;;;;;;;8.00;8.00;;;;;18.96;54.64;101453.31;4856078;29;45522;-90
2022/08/08 03:48:06;;;;;;;;;7.33;7.33;;;;;18.77;52.74;101419.31;4870579;28;44838;-89
2022/08/08 03:50:33;;;;;;;;;8.00;8.00;;;;;19.01;53.13;101468.53;4912854;28;46713;-89
2022/08/08 03:53:10;;;;;;;;;7.67;7.00;;;;;18.84;52.54;101450.72;4902072;28;44840;-88
2022/08/08 03:55:45;;;;;;;;;6.00;5.67;;;;;18.95;53.18;101467.72;4896693;28;45391;-88
2022/08/08 03:58:17;;;;;;;;;9.00;8.00;;;;;18.87;53.08;101458.78;4913257;28;44812;-89
2022/08/08 04:00:51;;;;;;;;;8.67;8.67;;;;;18.74;52.72;101435.50;4896038;28;47487;-89
2022/08/08 04:03:17;;;;;;;;;7.00;7.00;;;;;18.79;53.03;101449.88;4912656;28;45610;-89
2022/08/08 04:05:42;;;;;;;;;10.33;10.33;;;;;18.80;52.62;101448.97;4912218;28;45381;-89
2022/08/08 04:08:17;;;;;;;;;10.00;9.00;;;;;18.98;52.95;101483.84;4896065;28;45578;-89
2022/08/08 04:10:49;;;;;;;;;6.00;6.00;;;;;18.89;52.65;101462.38;4895959;28;47037;-89
2022/08/08 04:13:17;;;;;;;;;7.67;7.33;;;;;18.90;53.09;101472.22;4912652;28;45324;-89
2022/08/08 04:15:43;;;;;;;;;8.00;8.00;;;;;18.89;53.57;101469.56;4896318;29;44781;-89
2022/08/08 04:18:09;;;;;;;;;6.33;6.33;;;;;18.87;53.68;101474.97;4912663;28;45473;-88
2022/08/08 04:20:41;;;;;;;;;9.00;7.67;;;;;18.74;53.76;101457.06;4895657;28;47708;-89
2022/08/08 04:23:06;;;;;;;;;8.00;7.33;;;;;18.88;53.57;101471.34;4912351;28;45387;-88
2022/08/08 04:25:32;;;;;;;;;7.00;6.67;;;;;18.72;53.32;101466.97;4912482;28;44661;-89
2022/08/08 04:28:01;;;;;;;;;7.33;7.00;;;;;18.78;54.05;101485.78;4895987;28;45531;-88
2022/08/08 04:30:27;;;;;;;;;7.00;7.00;;;;;18.77;54.36;101495.66;4896216;29;46961;-89
2022/08/08 04:32:52;;;;;;;;;8.00;8.00;;;;;18.77;53.90;101497.47;4896550;28;45313;-88
2022/08/08 04:35:21;;;;;;;;;8.00;8.00;;;;;18.67;54.37;101480.47;4894982;28;45617;-89
2022/08/08 04:37:47;;;;;;;;;6.00;6.00;;;;;18.59;54.50;101471.56;4881039;29;45384;-89
2022/08/08 04:40:13;;;;;;;;;9.00;8.33;;;;;18.73;54.38;101501.09;4909392;29;46766;-89
2022/08/08 04:42:38;;;;;;;;;8.00;7.67;;;;;18.63;56.21;101488.59;4909381;28;45932;-89
2022/08/08 04:45:05;;;;;;;;;6.67;6.67;;;;;18.66;55.13;101496.66;4892824;29;45332;-88
2022/08/08 04:47:30;;;;;;;;;10.00;7.33;;;;;18.58;54.99;101488.63;4893356;29;44834;-88
2022/08/08 04:49:56;;;;;;;;;8.67;7.67;;;;;18.66;55.13;101493.97;4903838;29;46729;-89
2022/08/08 04:52:21;;;;;;;;;11.00;8.33;;;;;18.52;54.87;101464.41;4894745;28;44894;-90
2022/08/08 04:54:47;;;;;;;;;9.33;8.00;;;;;18.64;54.79;101482.28;4914156;28;44795;-89
2022/08/08 04:57:13;;;;;;;;;11.00;8.67;;;;;18.61;54.86;101480.53;4895364;29;45559;-90
2022/08/08 04:59:39;;;;;;;;;7.67;7.67;;;;;18.68;54.99;101501.09;4911950;28;47476;-89
2022/08/08 05:02:05;;;;;;;;;10.33;9.00;;;;;18.62;54.54;101494.88;4911662;28;45551;-89
2022/08/08 05:04:30;;;;;;;;;9.33;7.33;;;;;18.73;54.70;101502.00;4911320;28;45415;-88
2022/08/08 05:06:56;;;;;;;;;8.00;8.00;;;;;18.67;54.93;101493.06;4894728;29;44836;-89
2022/08/08 05:09:22;;;;;;;;;11.00;11.00;;;;;18.81;54.37;101519.94;4910890;28;47654;-89
2022/08/08 05:11:48;;;;;;;;;10.00;8.33;;;;;18.76;54.75;101515.47;4909040;29;45443;-88
2022/08/08 05:14:14;;;;;;;;;9.00;9.00;;;;;18.52;54.74;101478.81;4909679;29;45435;-89
2022/08/08 05:16:40;;;;;;;;;7.00;6.00;;;;;18.71;55.91;101500.22;4894425;28;45382;-89
2022/08/08 05:19:10;;;;;;;;;8.33;8.33;;;;;18.74;54.99;101501.09;4908747;29;45281;-88
2022/08/08 05:21:43;;;;;;;;;10.33;10.00;;;;;18.70;54.19;101484.94;4906795;28;45486;-89
2022/08/08 05:24:10;;;;;;;;;11.67;10.00;;;;;18.78;55.43;101480.38;4909346;29;45319;-89
2022/08/08 05:26:37;;;;;;;;;11.33;9.00;;;;;19.03;54.54;101505.38;4910837;28;45257;-89
2022/08/08 05:29:06;;;;;;;;;11.67;10.33;;;;;19.11;54.38;101517.00;4910048;29;45628;-88
2022/08/08 05:31:31;;;;;;;;;7.33;7.33;;;;;19.18;54.39;101510.63;4906704;29;44775;-89
2022/08/08 05:33:57;;;;;;;;;11.00;9.00;;;;;19.31;53.78;101529.38;4908274;28;44870;-88
2022/08/08 05:36:30;;;;;;;;;10.67;10.67;;;;;19.33;53.96;101520.38;4542440;29;10773818;-89
2022/08/08 05:38:57;;;;;;;;;9.00;6.00;;;;;19.26;53.28;101498.88;4910546;28;45216;-89
2022/08/08 05:41:24;;;;;;;;;11.33;10.00;;;;;19.47;53.33;101538.22;4918671;28;46866;-88
2022/08/08 05:44:01;;;;;;;;;11.00;9.33;;;;;19.55;53.16;101533.63;4910365;28;45466;-89
2022/08/08 05:46:27;;;;;;;;;8.67;7.00;;;;;19.51;52.60;101513.00;4911964;28;45327;-89
2022/08/08 05:48:53;;;;;;;;;11.67;11.67;;;;;19.59;52.53;101519.19;4910570;29;45585;-89
2022/08/08 05:51:20;;;;;;;;;10.33;10.00;;;;;19.69;52.90;101531.72;4910448;29;47085;-90
2022/08/08 05:53:46;;;;;;;;;11.00;10.67;;;;;19.50;52.83;101492.34;4894575;28;45183;-89
2022/08/08 05:56:13;;;;;;;;;12.00;10.33;;;;;19.82;52.42;101523.50;4924831;28;45432;-89
2022/08/08 05:58:44;;;;;;;;;12.00;11.00;;;;;19.89;52.05;101530.59;4912286;28;45343;-89
2022/08/08 06:01:11;;;;;;;;;8.67;8.00;;;;;19.89;52.68;101545.00;4896013;29;45444;-89
2022/08/08 06:03:42;;;;;;;;;13.33;11.00;;;;;19.87;51.97;101536.00;4911990;28;44699;-89
2022/08/08 06:06:08;;;;;;;;;10.00;9.00;;;;;19.84;51.68;101541.47;4897039;29;44755;-90
2022/08/08 06:08:48;;;;;;;;;9.33;8.67;;;;;19.68;51.95;101526.31;4896765;28;45594;-88
2022/08/08 06:11:55;;;;;;;;;11.67;10.33;;;;;19.80;52.30;101539.72;4895265;29;46841;-88
2022/08/08 06:14:25;;;;;;;;;10.67;10.67;;;;;19.71;52.13;101492.16;4910420;28;44853;-90
2022/08/08 06:16:52;;;;;;;;;9.33;9.33;;;;;19.81;51.75;101510.91;4911478;29;45309;-89
2022/08/08 06:19:20;;;;;;;;;12.00;11.00;;;;;20.14;51.92;101542.91;4915340;29;45363;-88
2022/08/08 06:21:49;;;;;;;;;12.33;11.33;;;;;20.07;51.42;101516.88;4913651;29;47062;-88
2022/08/08 06:24:15;;;;;;;;;10.00;9.00;;;;;20.26;51.11;101552.66;4913026;29;45741;-89
2022/08/08 06:26:46;;;;;;;;;10.00;10.00;;;;;20.18;51.11;101522.16;4915239;29;44793;-88
2022/08/08 06:29:24;;;;;;;;;11.67;10.33;;;;;20.16;51.20;101519.47;4915050;29;45592;-88
2022/08/08 06:31:55;;;;;;;;;11.00;10.00;;;;;20.37;50.86;101537.19;4912817;28;47165;-89
2022/08/08 06:34:37;;;;;;;;;12.00;12.00;;;;;20.59;51.27;101563.94;4897514;29;45464;-88
2022/08/08 06:37:11;;;;;;;;;11.00;10.00;;;;;20.52;50.62;101546.91;4898595;29;44857;-90
2022/08/08 06:39:43;;;;;;;;;10.67;9.67;;;;;20.57;50.59;101542.31;4915001;28;45549;-89
2022/08/08 06:42:12;;;;;;;;;9.00;9.00;;;;;20.71;50.15;101552.06;4914155;29;46840;-89
2022/08/08 06:44:40;;;;;;;;;12.33;11.00;;;;;20.76;50.46;101548.38;4914514;28;45314;-89
2022/08/08 06:47:06;;;;;;;;;9.67;9.67;;;;;20.91;50.31;101568.88;4915371;29;45510;-88
2022/08/08 06:49:32;;;;;;;;;10.00;9.00;;;;;20.87;50.44;101525.69;4913512;28;45445;-89
2022/08/08 06:51:59;;;;;;;;;13.67;10.00;;;;;21.31;49.57;101562.81;4915754;28;47149;-89
2022/08/08 06:54:31;;;;;;;;;13.00;12.00;;;;;21.45;48.92;101556.28;4906661;29;45391;-90
2022/08/08 06:56:59;;;;;;;;;12.67;10.33;;;;;21.35;47.88;101513.13;4882681;29;45428;-89
2022/08/08 06:59:28;;;;;;;;;10.67;9.33;;;;;21.59;47.50;101562.31;4898671;29;45367;-89
2022/08/08 07:02:04;;;;;;;;;10.00;10.00;;;;;21.49;47.42;101547.16;4900244;28;47741;-89
2022/08/08 07:05:08;;;;;;;;;9.33;9.33;;;;;21.65;47.27;101559.50;4914356;28;45351;-89
2022/08/08 07:07:51;;;;;;;;;10.00;10.00;;;;;21.75;46.86;101571.97;4875237;29;45540;-89
2022/08/08 07:10:20;;;;;;;;;13.33;9.67;;;;;21.61;47.17;101535.22;4894518;29;45659;-90
2022/08/08 07:13:25;;;;;;;;;10.00;9.33;;;;;21.95;46.58;101578.78;4878800;29;45395;-88
2022/08/08 07:15:58;;;;;;;;;9.00;9.00;;;;;22.04;45.94;101575.03;4893739;29;45576;-88
2022/08/08 07:18:44;;;;;;;;;9.67;9.67;;;;;22.11;45.92;101580.25;4893447;29;45526;-89
2022/08/08 07:21:48;;;;;;;;;;;;;;;;;;;;;
2022/08/08 07:24:56;;;;;;;;;11.33;11.33;;;;;22.31;45.52;101576.28;4891517;29;74696;-88
2022/08/08 07:53:02;;;;;;;;;9.00;9.00;;;;;23.03;43.66;101588.25;5120906;23;47300;-87
2022/08/08 07:56:00;;;;;;;;;12.00;9.67;;;;;23.02;42.83;101580.13;4838007;29;44884;-87
2022/08/08 07:59:13;;;;;;;;;11.33;9.67;;;;;23.19;42.81;101587.84;4820535;29;44949;-88
2022/08/08 08:05:34;;;;;;;;;12.67;12.00;;;;;23.20;42.60;101562.50;4764139;29;45736;-88
2022/08/08 08:08:32;;;;;;;;;9.33;8.67;;;;;23.16;42.30;101557.13;4764424;29;45416;-88
2022/08/08 08:11:14;;;;;;;;;9.67;9.33;;;;;23.35;42.33;101606.44;4749607;29;45438;-88
2022/08/08 08:18:19;;;;;;;;;10.67;10.67;;;;;23.49;42.08;101602.47;4765307;29;45425;-88
2022/08/08 08:21:07;;;;;;;;;;;;;;;;;;;;;
2022/08/08 08:30:32;;;;;;;;;8.00;7.33;;;;;23.89;40.76;101599.59;4758751;29;45680;-88
2022/08/08 08:32:58;;;;;;;;;7.67;7.67;;;;;23.67;40.99;101560.34;4836927;29;45235;-88
2022/08/08 08:35:58;;;;;;;;;8.00;8.00;;;;;23.71;40.81;101553.91;4837333;29;45487;-88
2022/08/08 08:39:20;;;;;;;;;;;;;;;;;;;;;
2022/08/08 08:41:57;;;;;;;;;10.00;10.00;;;;;24.09;40.31;101596.31;4873646;29;74354;-90
2022/08/08 08:44:25;;;;;;;;;8.33;8.33;;;;;24.04;40.24;101573.84;4857227;29;45368;-89
2022/08/08 08:46:59;;;;;;;;;9.00;8.00;;;;;24.13;40.23;101565.41;4876237;29;45431;-87
2022/08/08 08:49:35;;;;;;;;;8.67;8.00;;;;;24.02;39.41;101548.53;4860115;29;45320;-89
2022/08/08 08:52:03;;;;;;;;;8.33;7.33;;;;;24.28;39.42;101588.53;4858897;29;45258;-88
2022/08/08 08:54:36;;;;;;;;;6.33;6.33;;;;;24.15;39.05;101558.09;4875528;29;44800;-89
2022/08/08 08:58:08;;;;;;;;;;;;;;;;;;;;;
2022/08/08 09:00:37;;;;;;;;;10.00;9.00;;;;;24.33;38.70;101586.56;4875136;29;65044;-89
2022/08/08 09:08:57;;;;;;;;;8.00;7.00;;;;;24.21;38.97;101559.75;4932286;28;45228;-88
2022/08/08 09:11:31;;;;;;;;;8.00;7.00;;;;;24.35;38.83;101578.38;4931956;28;45332;-88
2022/08/08 09:13:59;;;;;;;;;7.00;7.00;;;;;24.34;37.68;101561.16;4932136;28;45428;-88
2022/08/08 09:16:34;;;;;;;;;9.33;8.33;;;;;24.29;37.80;101545.94;4914498;28;45679;-89
2022/08/08 09:19:07;;;;;;;;;9.00;8.00;;;;;24.56;38.35;101598.59;4929889;28;45367;-87
2022/08/08 09:21:34;;;;;;;;;10.00;9.00;;;;;24.46;38.32;101584.38;4915641;28;45371;-88
2022/08/08 09:24:26;;;;;;;;;9.67;9.67;;;;;24.29;37.92;101545.94;4920036;28;47233;-89
2022/08/08 09:27:07;;;;;;;;;9.00;8.33;;;;;24.49;38.56;101589.72;4933369;28;45120;-88
2022/08/08 09:40:45;;;;;;;;;7.00;7.00;;;;;24.64;37.69;101573.88;4873663;29;45445;-89
2022/08/08 09:43:43;;;;;;;;;7.33;7.33;;;;;24.67;37.93;101585.56;4866356;29;45750;-89
2022/08/08 09:46:49;;;;;;;;;7.00;7.00;;;;;24.43;38.36;101538.22;4872604;29;45306;-89
2022/08/08 10:06:54;;;;;;;;;6.67;6.33;;;;;24.78;36.13;101524.47;4935020;28;45354;-89
2022/08/08 10:12:39;;;;;;;;;6.00;6.00;;;;;24.89;36.19;101542.25;4859658;29;45040;-87
2022/08/08 10:15:34;;;;;;;;;6.00;6.00;;;;;24.86;36.37;101526.00;4859398;29;44779;-87
2022/08/08 10:21:34;;;;;;;;;6.33;6.33;;;;;25.12;35.55;101537.84;4857212;29;45356;-88
2022/08/08 10:24:17;;;;;;;;;8.00;5.00;;;;;25.06;35.42;101510.84;4858227;29;45335;-88
2022/08/08 10:27:07;;;;;;;;;7.67;7.33;;;;;25.30;35.48;101545.41;4857620;29;45492;-88
2022/08/08 10:29:47;;;;;;;;;8.00;6.67;;;;;25.48;35.28;101551.19;4856382;29;44727;-88
2022/08/08 10:35:59;;;;;;;;;6.33;6.33;;;;;25.47;33.63;101524.88;4856609;29;44960;-89
2022/08/08 11:07:14;;;;;;;;;6.00;6.00;;;;;26.02;33.12;101536.53;3505651;23;46827;-86
2022/08/08 11:09:46;;;;;;;;;8.00;8.00;;;;;26.00;32.49;101529.34;4917547;28;48407;-88
2022/08/08 11:13:14;;;;;;;;;;;;;;;;;;;;;
2022/08/08 11:15:44;;;;;;;;;7.33;5.00;;;;;25.97;32.35;101499.47;4908123;28;68262;-89
2022/08/08 11:18:55;;;;;;;;;5.00;5.00;;;;;26.04;32.53;101523.72;4936128;28;45511;-89
2022/08/08 11:25:30;;;;;;;;;5.00;5.00;;;;;26.11;32.87;101529.81;4857965;29;44919;-87
2022/08/08 11:28:00;;;;;;;;;7.00;6.33;;;;;25.95;32.82;101483.16;4856646;29;44980;-87
2022/08/08 11:31:26;;;;;;;;;;;;;;;;;;;;;
2022/08/08 11:52:13;;;;;;;;;5.33;5.33;;;;;26.38;30.39;101495.13;5226885;23;46154;-88
2022/08/08 11:54:58;;;;;;;;;8.33;6.33;;;;;26.45;30.60;101493.94;4931114;28;45289;-89
2022/08/08 11:58:54;;;;;;;;;5.33;5.33;;;;;26.57;31.01;101511.63;4956932;28;45251;-89
2022/08/08 12:07:10;;;;;;;;;4.67;4.67;;;;;26.46;30.09;101460.25;4951936;28;44894;-88
2022/08/08 12:09:56;;;;;;;;;;;;;;;;;;;;;
2022/08/08 12:13:37;;;;;;;;;5.33;5.33;;;;;26.80;29.93;101499.81;4953876;28;72028;-88
2022/08/08 12:19:25;;;;;;;;;5.00;5.00;;;;;26.61;30.29;101450.56;4840474;29;44956;-88
2022/08/08 12:21:51;;;;;;;;;5.33;5.33;;;;;26.83;30.18;101486.03;4825736;29;47237;-89
2022/08/08 12:24:48;;;;;;;;;4.67;4.67;;;;;26.83;29.69;101477.84;4839173;29;44830;-88
2022/08/08 12:27:41;;;;;;;;;4.67;4.67;;;;;26.82;29.50;101470.59;4834196;29;45098;-89
2022/08/08 12:30:39;;;;;;;;;;;;;;;;;;;;;
2022/08/08 12:33:53;;;;;;;;;4.33;3.33;;;;;26.94;29.34;101488.31;4774422;29;74079;-89
2022/08/08 12:37:01;;;;;;;;;8.00;8.00;;;;;26.73;29.02;101449.19;4774171;29;45299;-89
2022/08/08 12:46:22;;;;;;;;;6.00;5.00;;;;;27.01;28.51;101458.94;4669548;30;45255;-89
2022/08/08 12:49:43;;;;;;;;;;;;;;;;;;;;;
2022/08/08 12:52:47;;;;;;;;;5.33;3.67;;;;;27.24;28.30;101463.41;4692022;30;45558;-88
2022/08/08 13:00:28;;;;;;;;;;;;;;;;;;;;;
2022/08/08 13:03:14;;;;;;;;;;;;;;;;;;;;;
2022/08/08 13:06:46;;;;;;;;;3.33;3.33;;;;;27.23;28.75;101462.50;4677434;30;44877;-88
2022/08/08 13:13:50;;;;;;;;;5.67;5.67;;;;;27.22;27.69;101463.44;4677891;30;45491;-89
2022/08/08 13:17:29;;;;;;;;;6.00;5.33;;;;;27.03;28.53;101426.97;4676460;30;45327;-89
2022/08/08 13:31:43;;;;;;;;;;;;;;;;;;;;;
2022/08/08 13:44:49;;;;;;;;;4.67;4.67;;;;;27.42;27.87;101446.19;4694032;30;45323;-88
2022/08/08 13:47:34;;;;;;;;;4.33;4.33;;;;;27.33;28.65;101425.63;4728649;30;45550;-89
2022/08/08 13:50:10;;;;;;;;;7.00;5.33;;;;;27.39;28.70;101423.56;4745965;29;45247;-89
2022/08/08 13:53:02;;;;;;;;;2.00;2.00;;;;;27.48;28.46;101434.97;4709483;30;47172;-89
2022/08/08 13:55:30;;;;;;;;;7.00;4.00;;;;;27.53;28.32;101422.00;4716663;30;45989;-89
2022/08/08 13:57:56;;;;;;;;;4.33;4.33;;;;;27.69;26.82;101446.78;4729263;29;44836;-89
2022/08/08 14:00:49;;;;;;;;;;;;;;;;;;;;;
2022/08/08 14:03:29;;;;;;;;;4.00;4.00;;;;;29.12;25.36;101411.50;5259185;23;75390;-90
2022/08/08 14:06:11;;;;;;;;;3.67;3.67;;;;;31.70;23.49;101425.84;4858947;29;45509;-90
2022/08/08 14:08:48;;;;;;;;;4.67;4.00;;;;;33.78;22.57;101418.16;4870688;29;45455;-89
2022/08/08 14:11:28;;;;;;;;;4.33;4.33;;;;;35.48;20.95;101417.19;4874677;29;45261;-90
2022/08/08 14:13:54;;;;;;;;;4.00;4.00;;;;;36.80;17.39;101408.09;4890528;28;47331;-89
2022/08/08 14:16:30;;;;;;;;;3.00;3.00;;;;;37.95;17.48;101403.44;4874632;28;45770;-88
2022/08/08 14:19:00;;;;;;;;;3.33;3.33;;;;;39.08;17.90;101396.59;4858404;29;45225;-88
2022/08/08 14:21:44;;;;;;;;;3.33;3.33;;;;;39.69;16.48;101383.28;4858921;29;44821;-88
2022/08/08 14:24:22;;;;;;;;;;;;;;;;;;;;;
2022/08/08 14:27:22;;;;;;;;;4.33;4.33;;;;;41.33;15.45;101377.56;4872595;28;72164;-89
2022/08/08 14:29:59;;;;;;;;;3.00;3.00;;;;;41.43;14.51;101390.50;4860322;28;45384;-90
2022/08/08 14:33:16;;;;;;;;;3.00;3.00;;;;;41.56;12.74;101379.78;4873583;29;45312;-89
2022/08/08 14:36:26;;;;;;;;;3.00;3.00;;;;;41.84;11.68;101402.81;4800094;29;46590;-89
2022/08/08 14:39:39;;;;;;;;;3.00;3.00;;;;;42.36;12.75;101388.69;4823338;29;44780;-89
2022/08/08 14:46:20;;;;;;;;;2.00;2.00;;;;;43.77;10.90;101375.53;4765381;29;45698;-91
2022/08/08 14:49:18;;;;;;;;;2.33;2.33;;;;;43.99;11.75;101374.72;4775967;29;45499;-90
2022/08/08 14:56:11;;;;;;;;;;;;;;;;;;;;;
2022/08/08 15:08:54;;;;;;;;;;;;;;;;;;;;;
2022/08/08 15:17:03;;;;;;;;;3.00;3.00;;;;;46.48;10.23;101386.03;5190733;23;46550;-91
2022/08/08 15:22:34;;;;;;;;;2.00;2.00;;;;;48.15;9.48;101367.53;4898829;28;45172;-90
2022/08/08 15:24:59;;;;;;;;;3.00;3.00;;;;;48.94;8.09;101388.56;4911901;28;47026;-90
2022/08/08 15:27:37;;;;;;;;;3.00;2.00;;;;;50.04;9.08;101379.47;4913544;29;45416;-90
2022/08/08 15:30:58;;;;;;;;;;;;;;;;;;;;;
2022/08/08 15:33:39;;;;;;;;;3.67;3.67;;;;;51.06;8.31;101370.09;4895403;28;65824;-89
2022/08/08 15:36:53;;;;;;;;;;;;;;;;;;;;;
2022/08/08 15:39:41;;;;;;;;;3.00;3.00;;;;;52.43;7.71;101361.28;4857032;29;73028;-89
2022/08/08 15:52:23;;;;;;;;;3.00;3.00;;;;;52.13;7.07;101378.28;4903614;23;44988;-90
2022/08/08 15:55:08;;;;;;;;;2.00;2.00;;;;;51.29;7.39;101372.28;4894743;29;45372;-90
2022/08/08 15:58:11;;;;;;;;;1.00;1.00;;;;;48.92;8.32;101351.19;4878908;29;45332;-89
2022/08/08 16:00:39;;;;;;;;;3.00;3.00;;;;;45.28;9.09;101335.75;4892476;29;45294;-89
2022/08/08 16:03:21;;;;;;;;;3.00;3.00;;;;;42.63;10.63;101339.09;4880719;29;45976;-90
2022/08/08 16:06:00;;;;;;;;;2.33;2.33;;;;;40.29;12.44;101347.47;4911873;29;44806;-90
2022/08/08 16:08:31;;;;;;;;;1.33;1.33;;;;;38.36;13.15;101359.84;4895181;28;46056;-90
2022/08/08 16:10:57;;;;;;;;;2.67;2.67;;;;;37.15;14.63;101362.59;4896144;29;47091;-90
2022/08/08 16:13:23;;;;;;;;;3.00;3.00;;;;;36.08;14.80;101365.22;4897217;29;45378;-89
2022/08/08 16:15:54;;;;;;;;;2.00;2.00;;;;;34.91;16.12;101316.63;4912627;29;45300;-90
2022/08/08 16:18:26;;;;;;;;;1.00;1.00;;;;;34.06;16.91;101339.72;4911396;28;44932;-89
2022/08/08 16:20:55;;;;;;;;;2.67;2.00;;;;;33.37;17.44;101358.59;4895674;29;46121;-89
2022/08/08 16:23:21;;;;;;;;;3.33;3.00;;;;;32.57;18.33;101328.38;4911731;29;45428;-89
2022/08/08 16:25:49;;;;;;;;;3.00;1.00;;;;;32.05;18.78;101313.53;4896968;29;45412;-90
2022/08/08 16:28:15;;;;;;;;;4.00;4.00;;;;;31.63;19.75;101333.72;4896374;29;45605;-89
2022/08/08 16:30:42;;;;;;;;;3.00;3.00;;;;;31.30;19.53;101343.13;4900599;28;46857;-90
2022/08/08 16:33:08;;;;;;;;;2.33;1.00;;;;;31.05;19.66;101338.31;4912497;28;45537;-89
2022/08/08 16:35:38;;;;;;;;;2.00;2.00;;;;;30.91;19.51;101336.44;4910758;29;45327;-89